This is the latest recevied weather packets stored in our database for station/object DL7MAP-13. If no packets are shown the sender has not sent any weather packets the latest 10 day(s).
| Time | Temp. | Humidity | Pressure | Rain* | Wind** | Luminosity | Snow |
|---|---|---|---|---|---|---|---|
| 1777346886 | 3.33° C | 60% | 1020 hPa | - | - | - | - |
| 1777345987 | 3.89° C | 59% | 1019.9 hPa | - | - | - | - |
| 1777345087 | 3.89° C | 58% | 1019.9 hPa | - | - | - | - |
| 1777343286 | 4.44° C | 58% | 1019.4 hPa | - | - | - | - |
| 1777341487 | 5° C | 56% | 1019.3 hPa | - | - | - | - |
| 1777339687 | 5° C | 55% | 1019 hPa | - | - | - | - |
| 1777338787 | 5.56° C | 55% | 1018.8 hPa | - | - | - | - |
| 1777337887 | 5.56° C | 55% | 1018.9 hPa | - | - | - | - |
| 1777336987 | 5.56° C | 55% | 1018.9 hPa | - | - | - | - |
| 1777335187 | 5.56° C | 57% | 1018.6 hPa | - | - | - | - |
| 1777332487 | 6.11° C | 56% | 1018.6 hPa | - | - | - | - |
| 1777311787 | 15° C | 40% | 1016.1 hPa | - | - | - | - |
| 1777310886 | 15.56° C | 39% | 1016.3 hPa | - | - | - | - |
| 1777309086 | 16.11° C | 38% | 1016.4 hPa | - | - | - | - |
| 1777306387 | 16.67° C | 33% | 1016.5 hPa | - | - | - | - |
| 1777305487 | 16.67° C | 32% | 1016.3 hPa | - | - | - | - |
| 1777304587 | 16.67° C | 33% | 1016.3 hPa | - | - | - | - |
| 1777300086 | 17.22° C | 35% | 1018 hPa | - | - | - | - |
| 1777299186 | 17.78° C | 34% | 1016.9 hPa | - | - | - | - |
| 1777296487 | 18.33° C | 32% | 1018.4 hPa | - | - | - | - |
| 1777295587 | 18.89° C | 31% | 1016.7 hPa | - | - | - | - |
| 1777292887 | 17.78° C | 33% | 1017.3 hPa | - | - | - | - |
| 1777291087 | 17.22° C | 35% | 1017.3 hPa | - | - | - | - |
| 1777289286 | 17.78° C | 35% | 1018.7 hPa | - | - | - | - |
| 1777288387 | 16.67° C | 37% | 1017.8 hPa | - | - | - | - |
* Rain since midnight (hover to see other rain measurements)
** Current wind speed in m/s (hover to see current wind gust speed)